Time;durP1;ratioP1;P1;durP2;ratioP2;P2;SDS_P1;SDS_P2;PMS_P1;PMS_P2;Temp;Humidity;BMP_temperature;BMP_pressure;BME280_temperature;BME280_humidity;BME280_pressure;Samples;Min_cycle;Max_cycle;Signal;HPM_P1;HPM_P2
2022/07/21 00:00:18;;;;;;;15.32;13.93;;;;;;;22.62;88.76;98946.97;4933615;28;103235;-62
2022/07/21 00:02:46;;;;;;;15.25;13.88;;;;;;;22.23;91.59;98936.34;4925690;28;102716;-63
2022/07/21 00:05:14;;;;;;;15.38;13.98;;;;;;;22.18;91.58;98923.41;4916213;28;102764;-62
2022/07/21 00:07:42;;;;;;;14.97;13.70;;;;;;;22.20;91.69;98920.56;4929393;28;103405;-62
2022/07/21 00:10:12;;;;;;;13.98;12.80;;;;;;;22.36;90.12;98915.88;4934086;28;103192;-63
2022/07/21 00:12:40;;;;;;;12.75;11.73;;;;;;;22.82;87.34;98907.78;4916522;28;102813;-62
2022/07/21 00:15:09;;;;;;;13.95;12.65;;;;;;;22.78;87.77;98895.69;4916385;28;102640;-66
2022/07/21 00:17:37;;;;;;;9.47;8.70;;;;;;;23.03;84.17;98915.97;4934646;28;103370;-65
2022/07/21 00:20:08;;;;;;;9.60;8.80;;;;;;;23.19;83.28;98923.88;4932761;28;103198;-65
2022/07/21 00:22:36;;;;;;;11.10;10.23;;;;;;;23.20;82.49;98913.94;4932466;28;102709;-66
2022/07/21 00:25:05;;;;;;;9.70;9.00;;;;;;;23.24;82.55;98909.84;4931225;28;104098;-66
2022/07/21 00:27:37;;;;;;;9.48;8.73;;;;;;;23.26;81.37;98926.66;4915294;28;103261;-66
2022/07/21 00:30:08;;;;;;;8.50;7.82;;;;;;;23.34;81.43;98930.09;4931601;28;103371;-65
2022/07/21 00:32:36;;;;;;;9.38;8.68;;;;;;;23.28;82.35;98925.44;4915044;28;103001;-66
2022/07/21 00:35:06;;;;;;;12.05;11.05;;;;;;;23.17;83.60;98936.69;4934158;28;102917;-66
2022/07/21 00:37:34;;;;;;;9.57;8.77;;;;;;;23.28;81.96;98930.84;4931360;28;103339;-63
2022/07/21 00:40:02;;;;;;;10.27;9.48;;;;;;;23.33;81.77;98932.97;4933967;28;103310;-63
2022/07/21 00:42:31;;;;;;;12.00;11.02;;;;;;;23.28;82.46;98938.94;4931383;28;102692;-62
2022/07/21 00:45:02;;;;;;;8.23;7.63;;;;;;;23.36;80.93;98940.69;4945778;28;104309;-63
2022/07/21 00:47:31;;;;;;;8.80;8.20;;;;;;;23.43;80.59;98941.66;4934070;28;103580;-63
2022/07/21 00:50:01;;;;;;;10.10;9.27;;;;;;;23.48;81.46;98942.78;4933871;28;103333;-63
2022/07/21 00:52:29;;;;;;;9.45;8.75;;;;;;;23.45;81.50;98923.44;4930896;28;102754;-63
2022/07/21 00:54:57;;;;;;;15.73;14.40;;;;;;;22.70;86.35;98920.00;4914615;28;102972;-63
2022/07/21 00:57:25;;;;;;;17.67;15.98;;;;;;;21.62;94.89;98915.63;4934101;28;104020;-63
2022/07/21 00:59:53;;;;;;;16.08;14.73;;;;;;;22.12;92.95;98913.34;4928839;28;103284;-63
2022/07/21 01:02:23;;;;;;;15.27;13.87;;;;;;;22.66;88.22;98913.28;4914330;28;103384;-63
2022/07/21 01:04:51;;;;;;;14.02;12.88;;;;;;;23.00;85.14;98911.78;4931193;28;104396;-63
2022/07/21 01:07:20;;;;;;;12.33;11.33;;;;;;;23.19;82.62;98926.56;4931166;28;104328;-63
2022/07/21 01:09:48;;;;;;;10.80;9.82;;;;;;;23.33;82.26;98936.50;4915934;28;103217;-63
2022/07/21 01:12:16;;;;;;;12.63;11.53;;;;;;;23.28;84.30;98946.19;4931559;28;102910;-67
2022/07/21 01:14:44;;;;;;;14.20;13.00;;;;;;;23.27;83.97;98939.94;4933293;28;105150;-66
2022/07/21 01:17:14;;;;;;;14.17;13.03;;;;;;;23.24;84.50;98937.66;4936726;28;103479;-66
2022/07/21 01:19:44;;;;;;;10.63;9.82;;;;;;;23.34;82.82;98927.41;4933221;28;103303;-67
2022/07/21 01:22:16;;;;;;;11.23;10.30;;;;;;;23.48;81.30;98929.28;4936636;28;102826;-68
2022/07/21 01:24:44;;;;;;;12.80;11.70;;;;;;;23.50;81.02;98940.72;4917721;28;102986;-67
2022/07/21 01:27:12;;;;;;;12.85;11.65;;;;;;;23.55;80.23;98951.78;4936824;28;103474;-65
2022/07/21 01:29:40;;;;;;;10.48;9.68;;;;;;;23.59;80.89;98955.78;4938274;28;103259;-64
2022/07/21 01:32:08;;;;;;;14.25;13.10;;;;;;;23.52;81.58;98954.84;4937514;28;102919;-64
2022/07/21 01:34:36;;;;;;;12.65;11.55;;;;;;;23.20;84.57;98947.09;4938194;28;102660;-64
2022/07/21 01:37:04;;;;;;;11.80;10.90;;;;;;;23.33;82.99;98955.38;4921754;28;103329;-64
2022/07/21 01:42:18;;;;;;;10.68;9.82;;;;;;;23.49;79.92;98957.94;4934974;28;103021;-64
2022/07/21 01:44:46;;;;;;;13.80;12.50;;;;;;;23.38;81.81;98954.88;4916761;28;104258;-65
2022/07/21 01:47:17;;;;;;;12.63;11.60;;;;;;;23.40;81.75;98936.66;4918515;28;103330;-65
2022/07/21 01:49:45;;;;;;;11.73;10.73;;;;;;;23.47;81.06;98943.78;4932555;28;103299;-64
2022/07/21 01:52:13;;;;;;;12.52;11.43;;;;;;;23.25;81.43;98955.47;4934061;28;102772;-67
2022/07/21 01:54:45;;;;;;;12.43;11.30;;;;;;;23.36;82.17;98967.66;4934717;28;104217;-67
2022/07/21 01:57:14;;;;;;;12.25;11.15;;;;;;;23.35;83.33;98971.38;4933961;28;104417;-67
2022/07/21 01:59:42;;;;;;;11.23;10.32;;;;;;;23.35;82.82;98971.38;4919448;28;103233;-67
2022/07/21 02:02:10;;;;;;;12.98;11.68;;;;;;;23.42;82.67;98986.66;4930958;28;102754;-64
2022/07/21 02:04:38;;;;;;;14.05;12.85;;;;;;;23.26;84.18;99005.66;4934269;28;103602;-63
2022/07/21 02:07:06;;;;;;;12.75;11.75;;;;;;;23.35;83.38;99009.13;4935598;28;103422;-67
2022/07/21 02:09:34;;;;;;;11.60;10.65;;;;;;;23.39;83.31;98999.66;4934758;28;104196;-67
2022/07/21 02:12:04;;;;;;;12.05;11.07;;;;;;;23.25;83.37;98981.56;4934600;28;102900;-67
2022/07/21 02:14:32;;;;;;;13.75;12.55;;;;;;;23.11;84.79;98975.16;4919420;28;103195;-67
2022/07/21 02:17:01;;;;;;;11.45;10.50;;;;;;;23.19;84.23;98966.97;4937265;28;103770;-64
2022/07/21 02:19:29;;;;;;;11.53;10.63;;;;;;;23.18;84.38;98970.72;4937598;28;103290;-66
2022/07/21 02:21:57;;;;;;;14.50;13.10;;;;;;;23.13;85.01;98969.59;4922895;28;102926;-65
2022/07/21 02:24:25;;;;;;;13.20;12.00;;;;;;;23.04;85.65;98976.91;4933420;28;102683;-67
2022/07/21 02:26:53;;;;;;;12.13;11.13;;;;;;;22.81;87.55;98974.28;4952467;28;104259;-66
2022/07/21 02:29:22;;;;;;;9.30;8.60;;;;;;;23.14;84.17;98977.47;4937691;28;103368;-65
2022/07/21 02:31:51;;;;;;;12.55;11.50;;;;;;;23.02;86.42;98978.94;4934165;28;102743;-66
2022/07/21 02:34:18;;;;;;;14.00;12.70;;;;;;;23.06;85.99;98977.56;4934480;28;102919;-66
2022/07/21 02:36:47;;;;;;;10.10;9.20;;;;;;;23.26;83.77;98970.63;4933763;28;103145;-66
2022/07/21 02:39:15;;;;;;;9.23;8.52;;;;;;;23.36;83.17;98973.88;4919250;28;103196;-66
2022/07/21 02:41:44;;;;;;;12.17;11.07;;;;;;;23.39;83.36;98972.69;4936601;28;102998;-67
2022/07/21 02:44:12;;;;;;;13.23;12.10;;;;;;;23.20;84.55;98974.06;4934557;28;103049;-66
2022/07/21 02:46:41;;;;;;;13.70;12.40;;;;;;;23.17;83.60;98974.41;4935509;28;103425;-66
2022/07/21 02:49:10;;;;;;;12.00;11.02;;;;;;;23.18;83.99;98980.66;4947660;28;102752;-67
2022/07/21 02:51:38;;;;;;;9.18;8.48;;;;;;;23.27;83.04;98985.75;4935890;28;102799;-67
2022/07/21 02:54:09;;;;;;;9.50;8.80;;;;;;;23.35;82.83;98977.63;4919109;28;102862;-66
2022/07/21 02:56:37;;;;;;;9.27;8.48;;;;;;;23.42;82.68;98973.19;4933492;28;103310;-66
2022/07/21 02:59:05;;;;;;;10.23;9.43;;;;;;;23.29;83.93;98977.50;4932006;28;103454;-67
2022/07/21 03:01:33;;;;;;;9.82;9.02;;;;;;;23.41;82.36;98987.66;4930225;28;103166;-62
2022/07/21 03:04:02;;;;;;;12.13;11.05;;;;;;;23.42;83.84;98983.97;4916936;28;104133;-62
2022/07/21 03:06:30;;;;;;;11.88;10.88;;;;;;;23.47;84.00;98981.53;4934541;28;104076;-61
2022/07/21 03:08:58;;;;;;;10.00;9.30;;;;;;;23.53;83.41;98982.66;4931208;28;103264;-60
2022/07/21 03:11:26;;;;;;;11.60;10.60;;;;;;;23.47;84.19;98986.94;4919727;28;103111;-61
2022/07/21 03:13:54;;;;;;;10.18;9.27;;;;;;;23.51;83.07;98998.19;4930649;28;103816;-61
2022/07/21 03:16:22;;;;;;;11.13;10.17;;;;;;;23.48;82.79;98995.84;4933791;28;103350;-61
2022/07/21 03:18:50;;;;;;;14.00;12.80;;;;;;;22.44;89.88;98985.81;4932272;28;103240;-61
2022/07/21 03:21:20;;;;;;;13.35;12.23;;;;;;;22.58;89.36;98994.09;4919261;28;102879;-61
2022/07/21 03:23:48;;;;;;;12.57;11.57;;;;;;;22.86;87.74;99006.03;4935646;28;104333;-61
2022/07/21 03:26:16;;;;;;;13.77;12.68;;;;;;;22.91;87.28;99006.31;4938836;28;103405;-61
2022/07/21 03:28:47;;;;;;;13.02;11.63;;;;;;;22.88;87.79;99006.69;4937363;28;103273;-60
2022/07/21 03:31:16;;;;;;;9.60;8.90;;;;;;;22.96;86.63;99009.34;4934931;28;102738;-61
2022/07/21 03:33:44;;;;;;;12.43;11.30;;;;;;;23.02;86.14;99016.66;4936722;28;102636;-60
2022/07/21 03:36:12;;;;;;;10.00;9.20;;;;;;;23.05;86.29;99025.22;4936936;28;103258;-60
2022/07/21 03:38:41;;;;;;;10.65;9.68;;;;;;;23.14;84.36;99031.38;4916979;28;103938;-60
2022/07/21 03:41:09;;;;;;;11.43;10.45;;;;;;;23.19;84.06;99031.66;4933833;28;102700;-61
2022/07/21 03:43:40;;;;;;;12.63;11.55;;;;;;;23.14;84.86;99036.78;4934164;28;102676;-60
2022/07/21 03:46:08;;;;;;;13.73;12.52;;;;;;;22.74;87.98;99042.47;4935790;28;103596;-61
2022/07/21 03:57:57;;;;;;;18.58;16.98;;;;;;;21.11;100.00;99036.03;5135261;27;102545;-70
2022/07/21 04:00:28;;;;;;;17.10;15.70;;;;;;;21.32;99.73;99044.41;5117288;27;104092;-70
2022/07/21 04:02:56;;;;;;;14.18;13.02;;;;;;;21.61;97.83;99040.34;5117914;27;103967;-70
2022/07/21 04:05:25;;;;;;;15.55;14.20;;;;;;;21.88;94.86;99040.78;5121100;27;103254;-70
2022/07/21 04:07:53;;;;;;;16.77;15.23;;;;;;;21.67;95.38;99047.72;5121515;27;102762;-73
2022/07/21 04:10:24;;;;;;;9.60;8.90;;;;;;;22.12;92.25;99057.81;5119183;27;104252;-70
2022/07/21 04:12:52;;;;;;;11.38;10.48;;;;;;;22.42;90.34;99054.28;5121263;27;103260;-74
2022/07/21 04:15:21;;;;;;;14.20;12.98;;;;;;;22.37;91.42;99052.13;5116772;27;103904;-74
2022/07/21 04:17:50;;;;;;;13.43;12.23;;;;;;;22.44;90.68;99047.72;5119522;27;102777;-71
2022/07/21 04:20:18;;;;;;;10.37;9.57;;;;;;;22.64;89.20;99041.91;5096554;27;104298;-71
2022/07/21 04:22:47;;;;;;;9.98;9.18;;;;;;;22.74;87.74;99047.88;5102887;27;104818;-72
2022/07/21 04:25:16;;;;;;;9.68;8.98;;;;;;;22.91;86.53;99055.66;5099942;27;103247;-71
2022/07/21 04:27:45;;;;;;;10.02;9.23;;;;;;;22.99;85.62;99060.13;5121830;27;102687;-71
2022/07/21 04:30:15;;;;;;;12.25;11.05;;;;;;;23.07;85.12;99065.47;5119118;27;103933;-71
2022/07/21 04:32:46;;;;;;;11.70;10.70;;;;;;;23.03;85.41;99064.16;5122919;27;103659;-80
2022/07/21 04:35:15;;;;;;;13.53;12.43;;;;;;;22.85;86.76;99060.94;5100237;27;104321;-79
2022/07/21 04:37:43;;;;;;;13.83;12.63;;;;;;;22.62;88.01;99057.38;5120058;27;102950;-78
2022/07/21 04:40:13;;;;;;;12.95;11.85;;;;;;;22.80;86.82;99056.06;5119084;27;102653;-78
2022/07/21 04:42:41;;;;;;;15.73;14.27;;;;;;;22.63;87.81;99067.09;5096331;27;103265;-76
2022/07/21 04:45:12;;;;;;;13.18;12.13;;;;;;;22.81;86.48;99075.78;5110468;27;103201;-75
2022/07/21 04:47:48;;;;;;;10.85;9.98;;;;;;;22.95;84.77;99075.84;5118300;27;103180;-75
2022/07/21 04:50:17;;;;;;;11.10;10.20;;;;;;;23.06;84.08;99082.66;5122214;27;102658;-76
2022/07/21 04:52:46;;;;;;;13.37;12.23;;;;;;;22.96;85.04;99079.38;5116471;27;103365;-75
2022/07/21 04:55:14;;;;;;;16.77;14.98;;;;;;;22.15;89.19;99071.75;5093346;27;103329;-76
2022/07/21 04:57:45;;;;;;;16.83;15.32;;;;;;;22.03;90.76;99075.84;5124277;27;104199;-76
2022/07/21 05:00:15;;;;;;;15.43;13.93;;;;;;;22.26;90.30;99076.72;5120143;27;104092;-75
2022/07/21 05:02:44;;;;;;;15.20;13.90;;;;;;;22.37;89.52;99076.34;5100277;27;103265;-75
2022/07/21 05:05:13;;;;;;;13.05;11.95;;;;;;;22.62;88.09;99070.81;5120495;27;104514;-76
2022/07/21 05:07:42;;;;;;;14.35;13.05;;;;;;;22.83;86.07;99063.81;5111117;27;102663;-76
2022/07/21 05:10:12;;;;;;;12.23;11.30;;;;;;;22.98;85.03;99056.63;5091123;27;104271;-77
2022/07/21 05:12:40;;;;;;;12.57;11.52;;;;;;;22.97;85.26;99070.25;5100459;27;103205;-76
2022/07/21 05:15:11;;;;;;;13.98;12.75;;;;;;;23.08;84.99;99078.75;5099737;27;103330;-75
2022/07/21 05:17:41;;;;;;;15.17;13.87;;;;;;;23.01;84.12;99076.97;5087012;27;102966;-71
2022/07/21 05:20:13;;;;;;;15.60;14.32;;;;;;;22.92;85.38;99080.75;5085171;27;102943;-72
2022/07/21 05:22:42;;;;;;;16.80;15.45;;;;;;;22.60;86.61;99078.25;5103989;27;103703;-74
2022/07/21 05:25:10;;;;;;;15.85;14.55;;;;;;;22.79;86.25;99075.13;5104910;27;102918;-77
2022/07/21 05:27:38;;;;;;;14.82;13.60;;;;;;;22.82;84.27;99077.47;5085937;27;102629;-71
2022/07/21 05:30:07;;;;;;;11.38;10.48;;;;;;;23.20;83.25;99087.25;5106920;27;102716;-70
2022/07/21 05:32:35;;;;;;;13.85;12.77;;;;;;;23.45;83.25;99082.50;5104079;27;103326;-72
2022/07/21 05:35:08;;;;;;;12.03;10.93;;;;;;;23.51;81.77;99077.22;5079053;27;103216;-73
2022/07/21 05:37:37;;;;;;;11.48;10.57;;;;;;;23.70;80.81;99077.69;5087165;27;102655;-75
2022/07/21 05:40:06;;;;;;;11.57;10.68;;;;;;;23.83;79.87;99077.91;5064080;27;104269;-74
2022/07/21 05:42:34;;;;;;;14.63;13.45;;;;;;;23.58;81.50;99086.25;5097421;27;103903;-73
2022/07/21 05:45:03;;;;;;;13.50;12.30;;;;;;;23.58;80.95;99097.03;5101299;27;103184;-73
2022/07/21 05:47:32;;;;;;;14.10;12.90;;;;;;;23.56;80.86;99093.69;5102800;27;103548;-72
2022/07/21 05:50:00;;;;;;;14.90;13.50;;;;;;;23.02;82.42;99094.78;5105730;27;103618;-74
2022/07/21 05:52:27;;;;;;;13.10;11.98;;;;;;;23.22;82.41;99106.75;5104518;27;104108;-73
2022/07/21 05:54:57;;;;;;;12.85;11.75;;;;;;;23.73;81.42;99099.75;5105914;27;103212;-73
2022/07/21 05:57:25;;;;;;;12.85;11.75;;;;;;;23.77;79.66;99100.22;5103218;27;102894;-73
2022/07/21 05:59:53;;;;;;;13.02;11.93;;;;;;;23.93;78.78;99103.56;5101453;27;103824;-73
2022/07/21 06:02:21;;;;;;;13.90;12.70;;;;;;;23.87;79.80;99101.63;5104470;27;104016;-73
2022/07/21 06:04:48;;;;;;;12.48;11.48;;;;;;;23.81;81.38;99117.69;5103869;27;103405;-73
2022/07/21 06:07:17;;;;;;;13.60;12.45;;;;;;;23.85;80.21;99117.16;5103439;27;104736;-73
2022/07/21 06:09:44;;;;;;;14.57;13.27;;;;;;;23.95;80.02;99117.72;5105790;27;103632;-73
2022/07/21 06:12:14;;;;;;;12.32;11.25;;;;;;;24.04;79.51;99124.69;5084829;27;103464;-72
2022/07/21 06:14:42;;;;;;;13.35;12.27;;;;;;;24.05;79.39;99117.44;5083531;27;103257;-72
2022/07/21 06:17:10;;;;;;;13.00;11.90;;;;;;;24.20;80.16;99121.00;5107809;27;102676;-75
2022/07/21 06:19:38;;;;;;;11.02;10.02;;;;;;;24.34;78.38;99120.13;5106897;27;102932;-74
2022/07/21 06:22:05;;;;;;;13.73;12.63;;;;;;;23.95;79.15;99131.19;5105271;27;104303;-74
2022/07/21 06:24:33;;;;;;;12.70;11.50;;;;;;;23.82;78.65;99133.72;5107017;27;103171;-76
2022/07/21 06:27:01;;;;;;;13.95;12.52;;;;;;;23.73;76.66;99136.66;5110552;27;102686;-75
2022/07/21 06:29:34;;;;;;;13.35;12.05;;;;;;;23.40;79.93;99136.13;5086523;27;103378;-77
2022/07/21 06:32:02;;;;;;;11.57;10.63;;;;;;;24.00;77.33;99133.38;5103405;27;104191;-72
2022/07/21 06:34:30;;;;;;;11.97;10.87;;;;;;;24.27;76.14;99135.44;5105216;27;103714;-72
2022/07/21 06:36:58;;;;;;;12.57;11.38;;;;;;;24.11;76.98;99130.22;5087277;27;102905;-72
2022/07/21 06:39:28;;;;;;;11.57;10.68;;;;;;;24.44;76.85;99134.19;5104881;27;103018;-71
2022/07/21 06:41:56;;;;;;;9.63;8.88;;;;;;;24.71;75.74;99133.47;5102643;27;104117;-72
2022/07/21 06:44:28;;;;;;;11.10;10.07;;;;;;;24.52;74.95;99130.53;5103663;27;103285;-72
2022/07/21 06:46:57;;;;;;;9.68;8.88;;;;;;;24.67;70.48;99137.59;5106361;27;102854;-72
2022/07/21 06:49:27;;;;;;;10.38;9.38;;;;;;;24.61;72.64;99130.25;5103750;27;103758;-69
2022/07/21 06:51:55;;;;;;;10.13;9.17;;;;;;;24.99;71.74;99130.06;5102693;27;103310;-72
2022/07/21 06:54:23;;;;;;;10.65;9.75;;;;;;;24.89;71.94;99126.84;5102664;27;103180;-72
2022/07/21 06:56:51;;;;;;;10.55;9.65;;;;;;;24.87;71.89;99120.81;5084873;27;102732;-73
2022/07/21 06:59:19;;;;;;;10.07;9.23;;;;;;;24.98;71.80;99131.13;5087055;27;104099;-72
2022/07/21 07:01:47;;;;;;;10.40;9.40;;;;;;;24.75;73.29;99124.00;5103548;27;103656;-72
2022/07/21 07:04:16;;;;;;;11.00;9.90;;;;;;;24.69;70.54;99124.75;5106754;27;103078;-72
2022/07/21 07:06:46;;;;;;;10.50;9.40;;;;;;;24.72;70.05;99124.38;5104543;27;102902;-72
2022/07/21 07:09:16;;;;;;;10.80;9.70;;;;;;;24.52;70.51;99134.09;5086900;27;104434;-72
2022/07/21 07:11:44;;;;;;;11.80;10.63;;;;;;;23.58;73.86;99144.72;5103597;27;103979;-72
2022/07/21 07:14:33;;;;;;;9.73;8.93;;;;;;;24.98;70.08;99139.22;5100945;27;103241;-72
2022/07/21 07:17:02;;;;;;;10.07;9.13;;;;;;;25.11;68.80;99144.75;5083667;27;102882;-72
2022/07/21 07:19:31;;;;;;;9.23;8.53;;;;;;;25.29;69.50;99143.25;5083280;27;103768;-72
2022/07/21 07:21:59;;;;;;;9.35;8.55;;;;;;;25.08;69.62;99148.69;5105832;27;104544;-72
2022/07/21 07:24:27;;;;;;;9.45;8.68;;;;;;;25.32;68.17;99139.34;5104334;27;103222;-69
2022/07/21 07:26:56;;;;;;;9.45;8.32;;;;;;;25.38;68.27;99138.56;5106548;27;102790;-70
2022/07/21 07:29:24;;;;;;;9.88;8.85;;;;;;;25.50;68.10;99139.75;5102305;27;102687;-69
2022/07/21 07:31:52;;;;;;;9.13;8.33;;;;;;;25.29;66.53;99142.47;5106672;27;103334;-70
2022/07/21 07:34:20;;;;;;;8.57;7.88;;;;;;;25.79;66.84;99134.16;5105807;27;103200;-69
2022/07/21 07:36:49;;;;;;;8.57;7.77;;;;;;;26.16;65.84;99135.66;5095866;27;102788;-72
2022/07/21 07:39:17;;;;;;;8.52;7.78;;;;;;;26.58;65.05;99140.06;5102077;27;103407;-71
2022/07/21 07:41:47;;;;;;;8.57;7.88;;;;;;;26.36;64.20;99141.19;5105177;27;103253;-72
2022/07/21 07:44:15;;;;;;;8.70;7.97;;;;;;;26.41;64.58;99144.16;5103644;27;103300;-72
2022/07/21 07:46:43;;;;;;;9.00;8.20;;;;;;;25.78;65.23;99135.19;5102349;27;102731;-71
2022/07/21 07:49:11;;;;;;;9.03;8.17;;;;;;;25.09;65.74;99141.41;5106093;27;102985;-73
2022/07/21 07:51:45;;;;;;;7.95;7.25;;;;;;;26.41;64.00;99138.72;5100386;27;103663;-72
2022/07/21 07:54:15;;;;;;;8.45;7.65;;;;;;;26.46;62.21;99149.78;5101321;27;103473;-73
2022/07/21 07:56:42;;;;;;;9.10;7.97;;;;;;;26.16;62.55;99145.69;5105148;27;102835;-73
2022/07/21 07:59:10;;;;;;;8.57;7.87;;;;;;;26.30;62.76;99147.41;5107396;27;103898;-73
2022/07/21 08:01:38;;;;;;;9.60;8.35;;;;;;;26.09;64.44;99144.75;5104495;27;103521;-71
2022/07/21 08:04:06;;;;;;;9.70;8.90;;;;;;;25.69;65.46;99144.47;5103446;27;103198;-72
2022/07/21 08:06:34;;;;;;;9.60;8.80;;;;;;;25.95;62.50;99143.84;5083539;27;103111;-71
2022/07/21 08:09:04;;;;;;;9.25;8.43;;;;;;;24.52;66.85;99147.59;5101704;27;102988;-71
2022/07/21 08:11:34;;;;;;;8.98;8.18;;;;;;;24.79;67.03;99146.91;5104437;27;103319;-71
2022/07/21 08:14:02;;;;;;;6.80;6.30;;;;;;;25.47;66.45;99142.84;5083064;27;103318;-71
2022/07/21 08:16:30;;;;;;;7.78;7.07;;;;;;;26.07;64.34;99142.25;5104472;27;102963;-72
2022/07/21 08:18:57;;;;;;;8.63;7.78;;;;;;;26.15;62.83;99144.00;5101886;27;103679;-72
2022/07/21 08:21:30;;;;;;;8.02;7.32;;;;;;;26.17;62.42;99142.75;5101768;27;104275;-72
2022/07/21 08:24:18;;;;;;;7.57;6.97;;;;;;;26.24;62.66;99142.81;5103485;27;103069;-72
2022/07/21 08:26:47;;;;;;;7.80;7.20;;;;;;;27.09;61.59;99140.44;5105566;27;103016;-72
2022/07/21 08:29:15;;;;;;;7.70;7.00;;;;;;;27.81;58.01;99143.22;5102185;27;102755;-72
2022/07/21 08:31:43;;;;;;;7.22;6.63;;;;;;;27.35;57.91;99142.34;5104092;27;103264;-71
2022/07/21 08:34:11;;;;;;;8.07;7.27;;;;;;;26.91;58.55;99141.03;5093636;27;103173;-72
2022/07/21 08:36:39;;;;;;;7.38;6.70;;;;;;;27.50;58.47;99140.31;5103984;27;102787;-72
2022/07/21 08:39:07;;;;;;;7.85;7.15;;;;;;;27.33;58.53;99141.72;5103868;27;102696;-71
2022/07/21 08:41:37;;;;;;;7.67;6.97;;;;;;;27.39;57.74;99144.47;5103266;27;103951;-71
2022/07/21 08:44:10;;;;;;;7.07;6.45;;;;;;;27.16;57.41;99138.56;5106420;27;103233;-72
2022/07/21 08:46:40;;;;;;;7.30;6.68;;;;;;;28.35;55.24;99136.69;5095683;27;102928;-72
2022/07/21 08:49:11;;;;;;;7.35;6.65;;;;;;;29.59;52.78;99127.81;5084059;27;103728;-72
2022/07/21 08:51:39;;;;;;;6.68;6.07;;;;;;;28.59;50.71;99125.91;5104511;27;103359;-72
2022/07/21 08:54:07;;;;;;;6.70;6.10;;;;;;;29.06;52.19;99124.63;5105165;27;103235;-72
2022/07/21 08:56:35;;;;;;;6.63;5.88;;;;;;;29.45;52.93;99122.72;5103509;27;102687;-72
2022/07/21 08:59:06;;;;;;;7.32;6.68;;;;;;;29.58;51.23;99119.91;5100418;27;103334;-72
2022/07/21 09:01:37;;;;;;;7.07;6.30;;;;;;;30.18;51.50;99121.84;5105584;27;104080;-72
2022/07/21 09:04:23;;;;;;;7.05;6.45;;;;;;;30.00;51.30;99118.28;5085396;27;104540;-72
2022/07/21 09:06:56;;;;;;;6.55;5.75;;;;;;;30.18;47.62;99121.84;5087281;27;102901;-72
2022/07/21 09:09:25;;;;;;;5.85;5.25;;;;;;;30.22;48.30;99128.50;5106524;27;103892;-72
2022/07/21 09:11:56;;;;;;;6.75;5.80;;;;;;;30.22;46.87;99124.94;5105864;27;104269;-73
2022/07/21 09:14:28;;;;;;;6.20;5.70;;;;;;;30.66;47.23;99119.19;5087401;27;103240;-72
2022/07/21 09:16:58;;;;;;;5.82;5.20;;;;;;;31.15;46.43;99123.59;5104207;27;103420;-72
2022/07/21 09:19:38;;;;;;;6.43;5.85;;;;;;;31.20;46.22;99117.41;5085198;27;103884;-73
2022/07/21 09:22:12;;;;;;;6.90;6.30;;;;;;;31.46;45.98;99114.28;5106099;27;102935;-73
2022/07/21 09:24:40;;;;;;;7.07;6.40;;;;;;;31.34;47.25;99103.34;5106224;27;102930;-73
2022/07/21 09:27:10;;;;;;;6.38;5.82;;;;;;;31.04;46.63;99104.44;5106720;27;102973;-73
2022/07/21 09:29:45;;;;;;;6.68;6.07;;;;;;;30.92;46.27;99104.38;5108107;27;103052;-72
2022/07/21 09:32:25;;;;;;;6.30;5.70;;;;;;;30.40;48.66;99112.19;5106763;27;104099;-73
2022/07/21 09:34:55;;;;;;;6.93;6.22;;;;;;;31.26;47.76;99108.31;5106356;27;103308;-73
2022/07/21 09:37:28;;;;;;;6.50;6.00;;;;;;;31.62;45.71;99108.16;5105956;27;102768;-73
2022/07/21 09:39:57;;;;;;;6.63;6.03;;;;;;;31.19;46.06;99113.84;5107813;27;103540;-73
2022/07/21 09:42:26;;;;;;;6.00;5.45;;;;;;;30.11;45.53;99109.34;5104864;27;103234;-73
2022/07/21 09:44:58;;;;;;;5.65;5.13;;;;;;;30.92;45.95;99096.19;5105809;27;103249;-73
2022/07/21 09:47:28;;;;;;;5.90;5.40;;;;;;;31.70;43.77;99099.59;5107753;27;102732;-73
2022/07/21 09:49:58;;;;;;;5.63;5.13;;;;;;;31.82;43.61;99099.59;5108695;27;103979;-73
2022/07/21 09:52:47;;;;;;;5.45;4.95;;;;;;;32.45;41.95;99089.56;5111239;27;102940;-73
2022/07/21 09:55:17;;;;;;;5.80;5.30;;;;;;;31.87;45.81;99094.25;5107759;27;103331;-73
2022/07/21 09:57:45;;;;;;;6.00;5.10;;;;;;;32.06;43.35;99098.53;5109885;27;102607;-73
2022/07/21 10:00:17;;;;;;;5.43;4.93;;;;;;;31.56;43.22;99099.00;5107869;27;104119;-73
2022/07/21 10:02:47;;;;;;;5.30;4.90;;;;;;;31.81;44.03;99106.13;5106131;27;103431;-73
2022/07/21 10:05:18;;;;;;;6.85;4.72;;;;;;;31.46;42.72;99106.94;5087920;27;104181;-73
2022/07/21 10:07:48;;;;;;;5.45;4.95;;;;;;;31.40;41.74;99110.59;5079262;27;104408;-73
2022/07/21 10:10:20;;;;;;;5.60;5.00;;;;;;;30.21;45.80;99106.91;5108580;27;102955;-73
2022/07/21 10:12:49;;;;;;;6.63;6.03;;;;;;;28.09;51.34;99119.41;5054764;27;103257;-73
2022/07/21 10:15:19;;;;;;;7.38;5.90;;;;;;;28.29;51.61;99118.50;5037181;27;103218;-72
2022/07/21 10:17:52;;;;;;;6.55;5.95;;;;;;;28.91;50.77;99106.97;5053695;27;103383;-72
2022/07/21 10:20:27;;;;;;;6.07;5.57;;;;;;;27.65;51.13;99100.22;5053310;27;103914;-72
2022/07/21 10:23:03;;;;;;;5.93;5.40;;;;;;;28.53;51.52;99104.19;5050808;27;104142;-73
2022/07/21 10:25:31;;;;;;;6.53;5.93;;;;;;;28.72;50.23;99095.13;5054138;27;103402;-73
2022/07/21 10:28:20;;;;;;;7.95;5.90;;;;;;;29.93;49.03;99091.09;5049606;27;102692;-72
2022/07/21 10:30:54;;;;;;;7.28;5.75;;;;;;;29.73;47.35;99095.88;5034889;27;103325;-73
2022/07/21 10:33:52;;;;;;;7.38;6.05;;;;;;;28.24;49.75;99088.44;5051933;27;104009;-73
2022/07/21 10:36:44;;;;;;;7.25;5.38;;;;;;;29.07;49.19;99076.53;5045956;27;103259;-73
2022/07/21 10:39:24;;;;;;;5.10;4.70;;;;;;;29.81;49.21;99077.38;5031383;27;103767;-72
2022/07/21 10:41:55;;;;;;;5.35;4.90;;;;;;;30.96;45.81;99081.06;5038416;27;104009;-73
2022/07/21 10:44:44;;;;;;;6.15;5.10;;;;;;;29.21;48.34;99075.38;5047532;27;104264;-73
2022/07/21 10:47:16;;;;;;;5.53;5.03;;;;;;;30.63;46.36;99073.31;5028972;27;103208;-74
2022/07/21 10:49:53;;;;;;;4.80;4.40;;;;;;;31.37;46.00;99078.31;5037262;27;102833;-73
2022/07/21 10:53:05;;;;;;;4.97;4.40;;;;;;;31.52;43.94;99069.69;5046785;27;104371;-72
2022/07/21 10:55:37;;;;;;;5.32;4.82;;;;;;;30.29;43.75;99079.38;5041838;27;103657;-74
2022/07/21 10:58:26;;;;;;;5.20;4.80;;;;;;;29.20;44.37;99073.69;5024371;27;103209;-74
2022/07/21 11:00:55;;;;;;;5.10;4.70;;;;;;;29.89;43.66;99073.56;5028245;27;102862;-76
2022/07/21 11:03:28;;;;;;;4.90;4.43;;;;;;;30.30;44.49;99070.97;5039858;27;103102;-75
2022/07/21 11:06:22;;;;;;;4.33;4.00;;;;;;;31.08;43.42;99057.34;5027655;27;103244;-75
2022/07/21 11:09:08;;;;;;;5.22;4.20;;;;;;;30.24;44.83;99071.06;5030031;27;103267;-73
2022/07/21 11:11:38;;;;;;;5.38;4.43;;;;;;;30.93;43.17;99055.06;5031279;27;103169;-73
2022/07/21 11:14:15;;;;;;;4.60;4.20;;;;;;;31.31;41.87;99049.22;5016526;27;102994;-70
2022/07/21 11:17:11;;;;;;;4.90;4.50;;;;;;;30.88;41.44;99052.16;5007785;27;103340;-70
2022/07/21 11:19:45;;;;;;;4.65;4.25;;;;;;;31.42;41.17;99048.41;5021448;27;103272;-70
2022/07/21 11:22:15;;;;;;;4.53;4.13;;;;;;;31.91;40.65;99057.22;5021411;27;103089;-70
2022/07/21 11:24:45;;;;;;;4.38;3.97;;;;;;;30.98;40.92;99051.66;5009695;27;102953;-71
2022/07/21 11:27:16;;;;;;;4.45;4.07;;;;;;;31.17;40.68;99049.66;5024755;27;103979;-71
2022/07/21 11:29:46;;;;;;;4.63;4.13;;;;;;;30.03;41.13;99056.00;5021803;27;103253;-70
2022/07/21 11:32:17;;;;;;;4.55;4.15;;;;;;;30.60;42.17;99053.88;5024044;27;103006;-71
2022/07/21 11:34:49;;;;;;;4.90;4.50;;;;;;;30.78;41.33;99045.63;4999593;27;102917;-70
2022/07/21 11:37:19;;;;;;;6.50;4.55;;;;;;;31.01;42.17;99040.28;5049067;27;104030;-71
2022/07/21 11:40:08;;;;;;;5.95;5.35;;;;;;;32.24;40.00;99049.22;5042128;27;103242;-71
2022/07/21 11:42:39;;;;;;;4.75;4.35;;;;;;;30.34;42.78;99050.41;5040562;27;102938;-71